sensor_id;sensor_type;location;lat;lon;timestamp;temperature;humidity
22069;DHT22;13887;57.196;-2.100;2023-08-12T00:01:11;18.74;73.46
22069;DHT22;13887;57.196;-2.100;2023-08-12T00:03:38;18.76;73.40
22069;DHT22;13887;57.196;-2.100;2023-08-12T00:06:06;18.74;73.05
22069;DHT22;13887;57.196;-2.100;2023-08-12T00:08:33;18.71;73.12
22069;DHT22;13887;57.196;-2.100;2023-08-12T00:11:01;18.72;73.14
22069;DHT22;13887;57.196;-2.100;2023-08-12T00:13:28;18.73;73.27
22069;DHT22;13887;57.196;-2.100;2023-08-12T00:15:55;18.69;73.38
22069;DHT22;13887;57.196;-2.100;2023-08-12T00:18:23;18.70;73.47
22069;DHT22;13887;57.196;-2.100;2023-08-12T00:20:50;18.69;73.52
22069;DHT22;13887;57.196;-2.100;2023-08-12T00:23:18;18.67;73.51
22069;DHT22;13887;57.196;-2.100;2023-08-12T00:25:45;18.67;73.34
22069;DHT22;13887;57.196;-2.100;2023-08-12T00:28:12;18.68;73.31
22069;DHT22;13887;57.196;-2.100;2023-08-12T00:30:40;18.67;73.34
22069;DHT22;13887;57.196;-2.100;2023-08-12T00:33:07;18.65;73.25
22069;DHT22;13887;57.196;-2.100;2023-08-12T00:35:35;18.63;73.16
22069;DHT22;13887;57.196;-2.100;2023-08-12T00:38:02;18.65;73.40
22069;DHT22;13887;57.196;-2.100;2023-08-12T00:40:29;18.62;73.32
22069;DHT22;13887;57.196;-2.100;2023-08-12T00:42:57;18.59;73.43
22069;DHT22;13887;57.196;-2.100;2023-08-12T00:45:24;18.61;73.42
22069;DHT22;13887;57.196;-2.100;2023-08-12T00:47:51;18.59;73.35
22069;DHT22;13887;57.196;-2.100;2023-08-12T00:50:19;18.57;73.36
22069;DHT22;13887;57.196;-2.100;2023-08-12T00:52:48;18.57;73.28
22069;DHT22;13887;57.196;-2.100;2023-08-12T00:55:16;18.56;73.42
22069;DHT22;13887;57.196;-2.100;2023-08-12T00:57:44;18.57;73.29
22069;DHT22;13887;57.196;-2.100;2023-08-12T01:00:12;18.55;73.38
22069;DHT22;13887;57.196;-2.100;2023-08-12T01:02:42;18.51;73.46
22069;DHT22;13887;57.196;-2.100;2023-08-12T01:05:12;18.53;73.26
22069;DHT22;13887;57.196;-2.100;2023-08-12T01:07:40;18.52;73.35
22069;DHT22;13887;57.196;-2.100;2023-08-12T01:10:07;18.50;73.54
22069;DHT22;13887;57.196;-2.100;2023-08-12T01:12:41;18.49;73.49
22069;DHT22;13887;57.196;-2.100;2023-08-12T01:15:15;18.47;73.64
22069;DHT22;13887;57.196;-2.100;2023-08-12T01:17:43;18.46;73.63
22069;DHT22;13887;57.196;-2.100;2023-08-12T01:20:11;18.46;73.64
22069;DHT22;13887;57.196;-2.100;2023-08-12T01:22:44;18.43;73.82
22069;DHT22;13887;57.196;-2.100;2023-08-12T01:25:14;18.41;73.92
22069;DHT22;13887;57.196;-2.100;2023-08-12T01:27:41;18.39;73.88
22069;DHT22;13887;57.196;-2.100;2023-08-12T01:30:09;18.41;73.86
22069;DHT22;13887;57.196;-2.100;2023-08-12T01:33:02;18.40;73.83
22069;DHT22;13887;57.196;-2.100;2023-08-12T01:35:39;18.39;73.81
22069;DHT22;13887;57.196;-2.100;2023-08-12T01:38:08;18.39;73.89
22069;DHT22;13887;57.196;-2.100;2023-08-12T01:40:38;18.37;73.75
22069;DHT22;13887;57.196;-2.100;2023-08-12T01:43:05;18.33;73.90
22069;DHT22;13887;57.196;-2.100;2023-08-12T01:45:35;18.34;73.99
22069;DHT22;13887;57.196;-2.100;2023-08-12T01:48:03;18.34;73.93
22069;DHT22;13887;57.196;-2.100;2023-08-12T01:50:30;18.33;73.88
22069;DHT22;13887;57.196;-2.100;2023-08-12T01:52:57;18.29;73.87
22069;DHT22;13887;57.196;-2.100;2023-08-12T01:55:26;18.27;73.85
22069;DHT22;13887;57.196;-2.100;2023-08-12T01:57:53;18.28;73.71
22069;DHT22;13887;57.196;-2.100;2023-08-12T02:00:20;18.27;73.76
22069;DHT22;13887;57.196;-2.100;2023-08-12T02:02:47;18.26;73.95
22069;DHT22;13887;57.196;-2.100;2023-08-12T02:05:15;18.25;73.80
22069;DHT22;13887;57.196;-2.100;2023-08-12T02:07:42;18.23;74.03
22069;DHT22;13887;57.196;-2.100;2023-08-12T02:10:09;18.23;73.98
22069;DHT22;13887;57.196;-2.100;2023-08-12T02:12:37;18.23;74.02
22069;DHT22;13887;57.196;-2.100;2023-08-12T02:15:05;18.23;73.86
22069;DHT22;13887;57.196;-2.100;2023-08-12T02:17:33;18.24;73.88
22069;DHT22;13887;57.196;-2.100;2023-08-12T02:20:00;18.24;73.81
22069;DHT22;13887;57.196;-2.100;2023-08-12T02:22:29;18.20;73.98
22069;DHT22;13887;57.196;-2.100;2023-08-12T02:24:56;18.21;73.78
22069;DHT22;13887;57.196;-2.100;2023-08-12T02:27:24;18.22;73.78
22069;DHT22;13887;57.196;-2.100;2023-08-12T02:29:51;18.22;73.86
22069;DHT22;13887;57.196;-2.100;2023-08-12T02:32:18;18.23;73.86
22069;DHT22;13887;57.196;-2.100;2023-08-12T02:34:45;18.21;73.69
22069;DHT22;13887;57.196;-2.100;2023-08-12T02:37:12;18.20;73.85
22069;DHT22;13887;57.196;-2.100;2023-08-12T02:39:40;18.20;73.80
22069;DHT22;13887;57.196;-2.100;2023-08-12T02:42:07;18.19;73.73
22069;DHT22;13887;57.196;-2.100;2023-08-12T02:44:34;18.19;73.62
22069;DHT22;13887;57.196;-2.100;2023-08-12T02:47:01;18.19;73.57
22069;DHT22;13887;57.196;-2.100;2023-08-12T02:49:28;18.15;73.73
22069;DHT22;13887;57.196;-2.100;2023-08-12T02:51:56;18.14;73.70
22069;DHT22;13887;57.196;-2.100;2023-08-12T02:54:23;18.11;73.70
22069;DHT22;13887;57.196;-2.100;2023-08-12T02:56:50;18.12;73.66
22069;DHT22;13887;57.196;-2.100;2023-08-12T02:59:18;18.12;73.73
22069;DHT22;13887;57.196;-2.100;2023-08-12T03:01:45;18.14;73.61
22069;DHT22;13887;57.196;-2.100;2023-08-12T03:04:12;18.11;73.61
22069;DHT22;13887;57.196;-2.100;2023-08-12T03:06:39;18.11;73.41
22069;DHT22;13887;57.196;-2.100;2023-08-12T03:09:06;18.09;73.42
22069;DHT22;13887;57.196;-2.100;2023-08-12T03:11:34;18.09;73.34
22069;DHT22;13887;57.196;-2.100;2023-08-12T03:14:04;18.08;73.37
22069;DHT22;13887;57.196;-2.100;2023-08-12T03:16:31;18.07;73.29
22069;DHT22;13887;57.196;-2.100;2023-08-12T03:18:58;18.05;73.38
22069;DHT22;13887;57.196;-2.100;2023-08-12T03:21:25;18.04;73.54
22069;DHT22;13887;57.196;-2.100;2023-08-12T03:23:53;18.03;73.44
22069;DHT22;13887;57.196;-2.100;2023-08-12T03:26:20;18.00;73.38
22069;DHT22;13887;57.196;-2.100;2023-08-12T03:28:48;18.02;73.48
22069;DHT22;13887;57.196;-2.100;2023-08-12T03:31:18;18.02;73.47
22069;DHT22;13887;57.196;-2.100;2023-08-12T03:33:46;18.00;73.38
22069;DHT22;13887;57.196;-2.100;2023-08-12T03:36:14;17.97;73.56
22069;DHT22;13887;57.196;-2.100;2023-08-12T03:38:41;17.97;73.56
22069;DHT22;13887;57.196;-2.100;2023-08-12T03:41:13;17.97;73.69
22069;DHT22;13887;57.196;-2.100;2023-08-12T03:43:41;17.97;73.73
22069;DHT22;13887;57.196;-2.100;2023-08-12T03:46:09;17.95;73.87
22069;DHT22;13887;57.196;-2.100;2023-08-12T03:48:37;17.94;73.88
22069;DHT22;13887;57.196;-2.100;2023-08-12T03:51:04;17.94;73.68
22069;DHT22;13887;57.196;-2.100;2023-08-12T03:53:31;17.93;73.69
22069;DHT22;13887;57.196;-2.100;2023-08-12T03:55:58;17.93;73.72
22069;DHT22;13887;57.196;-2.100;2023-08-12T03:58:26;17.94;73.66
22069;DHT22;13887;57.196;-2.100;2023-08-12T04:00:53;17.92;73.78
22069;DHT22;13887;57.196;-2.100;2023-08-12T04:03:21;17.95;73.64
22069;DHT22;13887;57.196;-2.100;2023-08-12T04:05:51;17.94;73.64
22069;DHT22;13887;57.196;-2.100;2023-08-12T04:08:21;17.90;73.80
22069;DHT22;13887;57.196;-2.100;2023-08-12T04:10:50;17.90;73.72
22069;DHT22;13887;57.196;-2.100;2023-08-12T04:13:17;17.90;73.85
22069;DHT22;13887;57.196;-2.100;2023-08-12T04:15:49;17.91;73.82
22069;DHT22;13887;57.196;-2.100;2023-08-12T04:18:17;17.90;73.74
22069;DHT22;13887;57.196;-2.100;2023-08-12T04:20:48;17.89;73.81
22069;DHT22;13887;57.196;-2.100;2023-08-12T04:23:16;17.88;73.75
22069;DHT22;13887;57.196;-2.100;2023-08-12T04:25:45;17.88;73.76
22069;DHT22;13887;57.196;-2.100;2023-08-12T04:28:14;17.84;73.90
22069;DHT22;13887;57.196;-2.100;2023-08-12T04:30:46;17.82;73.92
22069;DHT22;13887;57.196;-2.100;2023-08-12T04:33:14;17.78;74.08
22069;DHT22;13887;57.196;-2.100;2023-08-12T04:35:42;17.79;74.12
22069;DHT22;13887;57.196;-2.100;2023-08-12T04:38:10;17.79;74.02
22069;DHT22;13887;57.196;-2.100;2023-08-12T04:40:40;17.76;73.99
22069;DHT22;13887;57.196;-2.100;2023-08-12T04:43:08;17.76;73.87
22069;DHT22;13887;57.196;-2.100;2023-08-12T04:45:36;17.73;73.83
22069;DHT22;13887;57.196;-2.100;2023-08-12T04:48:04;17.72;73.95
22069;DHT22;13887;57.196;-2.100;2023-08-12T04:50:33;17.72;73.99
22069;DHT22;13887;57.196;-2.100;2023-08-12T04:53:01;17.69;73.99
22069;DHT22;13887;57.196;-2.100;2023-08-12T04:55:29;17.72;73.97
22069;DHT22;13887;57.196;-2.100;2023-08-12T04:57:57;17.69;73.99
22069;DHT22;13887;57.196;-2.100;2023-08-12T05:00:25;17.69;73.98
22069;DHT22;13887;57.196;-2.100;2023-08-12T05:02:56;17.68;74.01
22069;DHT22;13887;57.196;-2.100;2023-08-12T05:05:26;17.67;73.99
22069;DHT22;13887;57.196;-2.100;2023-08-12T05:07:53;17.67;74.01
22069;DHT22;13887;57.196;-2.100;2023-08-12T05:10:21;17.65;74.10
22069;DHT22;13887;57.196;-2.100;2023-08-12T05:12:49;17.64;74.02
22069;DHT22;13887;57.196;-2.100;2023-08-12T05:15:19;17.60;74.10
22069;DHT22;13887;57.196;-2.100;2023-08-12T05:17:48;17.62;74.15
22069;DHT22;13887;57.196;-2.100;2023-08-12T05:20:18;17.62;74.18
22069;DHT22;13887;57.196;-2.100;2023-08-12T05:22:46;17.65;74.15
22069;DHT22;13887;57.196;-2.100;2023-08-12T05:25:13;17.63;74.14
22069;DHT22;13887;57.196;-2.100;2023-08-12T05:27:40;17.62;73.98
22069;DHT22;13887;57.196;-2.100;2023-08-12T05:30:08;17.62;73.97
22069;DHT22;13887;57.196;-2.100;2023-08-12T05:32:36;17.62;73.90
22069;DHT22;13887;57.196;-2.100;2023-08-12T05:35:03;17.66;73.85
22069;DHT22;13887;57.196;-2.100;2023-08-12T05:37:30;17.68;73.80
22069;DHT22;13887;57.196;-2.100;2023-08-12T05:39:58;17.66;73.80
22069;DHT22;13887;57.196;-2.100;2023-08-12T05:42:25;17.67;73.79
22069;DHT22;13887;57.196;-2.100;2023-08-12T05:44:52;17.69;73.82
22069;DHT22;13887;57.196;-2.100;2023-08-12T05:47:19;17.69;73.81
22069;DHT22;13887;57.196;-2.100;2023-08-12T05:49:46;17.67;73.80
22069;DHT22;13887;57.196;-2.100;2023-08-12T05:52:13;17.66;73.90
22069;DHT22;13887;57.196;-2.100;2023-08-12T05:54:41;17.66;73.90
22069;DHT22;13887;57.196;-2.100;2023-08-12T05:57:08;17.67;73.96
22069;DHT22;13887;57.196;-2.100;2023-08-12T05:59:35;17.66;73.97
22069;DHT22;13887;57.196;-2.100;2023-08-12T06:02:02;17.65;74.20
22069;DHT22;13887;57.196;-2.100;2023-08-12T06:04:30;17.66;74.20
22069;DHT22;13887;57.196;-2.100;2023-08-12T06:06:57;17.66;74.28
22069;DHT22;13887;57.196;-2.100;2023-08-12T06:09:24;17.66;74.25
22069;DHT22;13887;57.196;-2.100;2023-08-12T06:11:51;17.69;74.16
22069;DHT22;13887;57.196;-2.100;2023-08-12T06:14:19;17.69;74.21
22069;DHT22;13887;57.196;-2.100;2023-08-12T06:16:46;17.72;74.21
22069;DHT22;13887;57.196;-2.100;2023-08-12T06:19:13;17.72;74.14
22069;DHT22;13887;57.196;-2.100;2023-08-12T06:21:40;17.73;74.18
22069;DHT22;13887;57.196;-2.100;2023-08-12T06:24:07;17.74;74.10
22069;DHT22;13887;57.196;-2.100;2023-08-12T06:26:34;17.75;74.01
22069;DHT22;13887;57.196;-2.100;2023-08-12T06:29:02;17.75;74.11
22069;DHT22;13887;57.196;-2.100;2023-08-12T06:31:32;17.73;74.16
22069;DHT22;13887;57.196;-2.100;2023-08-12T06:33:59;17.75;74.12
22069;DHT22;13887;57.196;-2.100;2023-08-12T06:36:26;17.75;74.14
22069;DHT22;13887;57.196;-2.100;2023-08-12T06:38:54;17.73;74.37
22069;DHT22;13887;57.196;-2.100;2023-08-12T06:41:21;17.74;74.30
22069;DHT22;13887;57.196;-2.100;2023-08-12T06:43:48;17.75;74.35
22069;DHT22;13887;57.196;-2.100;2023-08-12T06:46:15;17.77;74.32
22069;DHT22;13887;57.196;-2.100;2023-08-12T06:48:42;17.79;74.35
22069;DHT22;13887;57.196;-2.100;2023-08-12T06:51:09;17.78;74.40
22069;DHT22;13887;57.196;-2.100;2023-08-12T06:53:40;17.80;74.52
22069;DHT22;13887;57.196;-2.100;2023-08-12T06:56:07;17.80;74.48
22069;DHT22;13887;57.196;-2.100;2023-08-12T06:58:34;17.82;74.54
22069;DHT22;13887;57.196;-2.100;2023-08-12T07:01:02;17.81;74.44
22069;DHT22;13887;57.196;-2.100;2023-08-12T07:03:29;17.80;74.53
22069;DHT22;13887;57.196;-2.100;2023-08-12T07:05:56;17.78;74.57
22069;DHT22;13887;57.196;-2.100;2023-08-12T07:08:23;17.78;74.53
22069;DHT22;13887;57.196;-2.100;2023-08-12T07:10:51;17.76;74.66
22069;DHT22;13887;57.196;-2.100;2023-08-12T07:13:19;17.74;74.68
22069;DHT22;13887;57.196;-2.100;2023-08-12T07:15:46;17.75;74.80
22069;DHT22;13887;57.196;-2.100;2023-08-12T07:18:14;17.74;74.85
22069;DHT22;13887;57.196;-2.100;2023-08-12T07:20:41;17.70;74.92
22069;DHT22;13887;57.196;-2.100;2023-08-12T07:23:08;17.73;74.85
22069;DHT22;13887;57.196;-2.100;2023-08-12T07:25:35;17.73;74.96
22069;DHT22;13887;57.196;-2.100;2023-08-12T07:28:02;17.70;75.01
22069;DHT22;13887;57.196;-2.100;2023-08-12T07:30:30;17.72;75.06
22069;DHT22;13887;57.196;-2.100;2023-08-12T07:32:57;17.77;74.80
22069;DHT22;13887;57.196;-2.100;2023-08-12T07:35:24;17.75;74.89
22069;DHT22;13887;57.196;-2.100;2023-08-12T07:37:51;17.76;74.89
22069;DHT22;13887;57.196;-2.100;2023-08-12T07:40:18;17.78;74.81
22069;DHT22;13887;57.196;-2.100;2023-08-12T07:42:45;17.82;74.65
22069;DHT22;13887;57.196;-2.100;2023-08-12T07:45:13;17.80;74.79
22069;DHT22;13887;57.196;-2.100;2023-08-12T07:47:40;17.80;74.81
22069;DHT22;13887;57.196;-2.100;2023-08-12T07:50:07;17.80;74.94
22069;DHT22;13887;57.196;-2.100;2023-08-12T07:52:35;17.79;74.93
22069;DHT22;13887;57.196;-2.100;2023-08-12T07:55:02;17.79;75.00
22069;DHT22;13887;57.196;-2.100;2023-08-12T07:57:29;17.78;75.01
22069;DHT22;13887;57.196;-2.100;2023-08-12T07:59:56;17.78;75.06
22069;DHT22;13887;57.196;-2.100;2023-08-12T08:02:24;17.76;75.15
22069;DHT22;13887;57.196;-2.100;2023-08-12T08:04:51;17.77;75.18
22069;DHT22;13887;57.196;-2.100;2023-08-12T08:07:18;17.73;75.21
22069;DHT22;13887;57.196;-2.100;2023-08-12T08:09:45;17.74;75.28
22069;DHT22;13887;57.196;-2.100;2023-08-12T08:12:13;17.75;75.33
22069;DHT22;13887;57.196;-2.100;2023-08-12T08:14:41;17.75;75.31
22069;DHT22;13887;57.196;-2.100;2023-08-12T08:17:08;17.78;75.19
22069;DHT22;13887;57.196;-2.100;2023-08-12T08:19:35;17.78;75.17
22069;DHT22;13887;57.196;-2.100;2023-08-12T08:22:02;17.77;75.23
22069;DHT22;13887;57.196;-2.100;2023-08-12T08:24:30;17.80;75.11
22069;DHT22;13887;57.196;-2.100;2023-08-12T08:26:57;17.81;75.15
22069;DHT22;13887;57.196;-2.100;2023-08-12T08:29:25;17.83;75.13
22069;DHT22;13887;57.196;-2.100;2023-08-12T08:31:52;17.83;75.11
22069;DHT22;13887;57.196;-2.100;2023-08-12T08:34:23;17.83;75.12
22069;DHT22;13887;57.196;-2.100;2023-08-12T08:36:50;17.85;75.02
22069;DHT22;13887;57.196;-2.100;2023-08-12T08:39:18;17.85;75.00
22069;DHT22;13887;57.196;-2.100;2023-08-12T08:41:47;17.89;74.96
22069;DHT22;13887;57.196;-2.100;2023-08-12T08:44:15;17.89;74.96
22069;DHT22;13887;57.196;-2.100;2023-08-12T08:46:45;17.90;74.93
22069;DHT22;13887;57.196;-2.100;2023-08-12T08:49:13;17.90;74.97
22069;DHT22;13887;57.196;-2.100;2023-08-12T08:51:41;17.89;74.87
22069;DHT22;13887;57.196;-2.100;2023-08-12T08:54:09;17.90;74.87
22069;DHT22;13887;57.196;-2.100;2023-08-12T08:56:38;17.88;75.02
22069;DHT22;13887;57.196;-2.100;2023-08-12T08:59:13;17.90;74.90
22069;DHT22;13887;57.196;-2.100;2023-08-12T09:01:41;17.91;74.80
22069;DHT22;13887;57.196;-2.100;2023-08-12T09:04:09;17.91;74.76
22069;DHT22;13887;57.196;-2.100;2023-08-12T09:06:38;17.94;74.76
22069;DHT22;13887;57.196;-2.100;2023-08-12T09:09:10;17.93;74.73
22069;DHT22;13887;57.196;-2.100;2023-08-12T09:11:38;17.93;74.76
22069;DHT22;13887;57.196;-2.100;2023-08-12T09:14:07;17.94;74.77
22069;DHT22;13887;57.196;-2.100;2023-08-12T09:16:35;17.94;74.83
22069;DHT22;13887;57.196;-2.100;2023-08-12T09:19:03;17.97;74.79
22069;DHT22;13887;57.196;-2.100;2023-08-12T09:21:30;17.99;74.80
22069;DHT22;13887;57.196;-2.100;2023-08-12T09:24:02;17.99;74.86
22069;DHT22;13887;57.196;-2.100;2023-08-12T09:26:29;18.02;74.76
22069;DHT22;13887;57.196;-2.100;2023-08-12T09:28:59;18.04;74.85
22069;DHT22;13887;57.196;-2.100;2023-08-12T09:31:29;18.05;74.77
22069;DHT22;13887;57.196;-2.100;2023-08-12T09:34:04;18.07;74.86
22069;DHT22;13887;57.196;-2.100;2023-08-12T09:36:34;18.09;74.86
22069;DHT22;13887;57.196;-2.100;2023-08-12T09:39:06;18.09;74.97
22069;DHT22;13887;57.196;-2.100;2023-08-12T09:41:37;18.10;75.13
22069;DHT22;13887;57.196;-2.100;2023-08-12T09:44:06;18.09;75.15
22069;DHT22;13887;57.196;-2.100;2023-08-12T09:46:33;18.10;75.10
22069;DHT22;13887;57.196;-2.100;2023-08-12T09:49:00;18.12;75.02
22069;DHT22;13887;57.196;-2.100;2023-08-12T09:51:34;18.14;75.04
22069;DHT22;13887;57.196;-2.100;2023-08-12T09:54:02;18.17;75.03
22069;DHT22;13887;57.196;-2.100;2023-08-12T09:56:35;18.15;75.06
22069;DHT22;13887;57.196;-2.100;2023-08-12T09:59:06;18.15;75.14
22069;DHT22;13887;57.196;-2.100;2023-08-12T10:01:35;18.17;75.14
22069;DHT22;13887;57.196;-2.100;2023-08-12T10:04:05;18.18;75.07
22069;DHT22;13887;57.196;-2.100;2023-08-12T10:06:36;18.20;75.18
22069;DHT22;13887;57.196;-2.100;2023-08-12T10:09:03;18.18;75.22
22069;DHT22;13887;57.196;-2.100;2023-08-12T10:11:32;18.18;75.28
22069;DHT22;13887;57.196;-2.100;2023-08-12T10:14:00;18.19;75.34
22069;DHT22;13887;57.196;-2.100;2023-08-12T10:16:29;18.21;75.25
22069;DHT22;13887;57.196;-2.100;2023-08-12T10:18:57;18.24;75.18
22069;DHT22;13887;57.196;-2.100;2023-08-12T10:21:25;18.22;75.17
22069;DHT22;13887;57.196;-2.100;2023-08-12T10:23:53;18.27;75.26
22069;DHT22;13887;57.196;-2.100;2023-08-12T10:26:21;18.26;75.31
22069;DHT22;13887;57.196;-2.100;2023-08-12T10:28:49;18.27;75.23
22069;DHT22;13887;57.196;-2.100;2023-08-12T10:31:19;18.29;75.21
22069;DHT22;13887;57.196;-2.100;2023-08-12T10:33:47;18.29;75.31
22069;DHT22;13887;57.196;-2.100;2023-08-12T10:36:16;18.30;75.25
22069;DHT22;13887;57.196;-2.100;2023-08-12T10:38:46;18.32;75.34
22069;DHT22;13887;57.196;-2.100;2023-08-12T10:41:20;18.33;75.37
22069;DHT22;13887;57.196;-2.100;2023-08-12T10:44:05;18.29;75.31
22069;DHT22;13887;57.196;-2.100;2023-08-12T10:46:34;18.32;75.34
22069;DHT22;13887;57.196;-2.100;2023-08-12T10:49:05;18.32;75.31
22069;DHT22;13887;57.196;-2.100;2023-08-12T10:51:53;18.29;75.41
22069;DHT22;13887;57.196;-2.100;2023-08-12T10:54:27;18.32;75.41
22069;DHT22;13887;57.196;-2.100;2023-08-12T10:57:05;18.32;75.29
22069;DHT22;13887;57.196;-2.100;2023-08-12T11:02:34;18.29;75.54
22069;DHT22;13887;57.196;-2.100;2023-08-12T11:05:07;18.29;75.70
22069;DHT22;13887;57.196;-2.100;2023-08-12T11:07:43;18.30;75.63
22069;DHT22;13887;57.196;-2.100;2023-08-12T11:12:40;18.28;75.67
22069;DHT22;13887;57.196;-2.100;2023-08-12T11:15:08;18.27;75.70
22069;DHT22;13887;57.196;-2.100;2023-08-12T11:17:41;18.25;75.73
22069;DHT22;13887;57.196;-2.100;2023-08-12T11:20:10;18.24;75.69
22069;DHT22;13887;57.196;-2.100;2023-08-12T11:22:43;18.25;75.58
22069;DHT22;13887;57.196;-2.100;2023-08-12T11:25:11;18.26;75.60
22069;DHT22;13887;57.196;-2.100;2023-08-12T11:27:43;18.26;75.60
22069;DHT22;13887;57.196;-2.100;2023-08-12T11:30:13;18.28;75.54
22069;DHT22;13887;57.196;-2.100;2023-08-12T11:32:44;18.27;75.53
22069;DHT22;13887;57.196;-2.100;2023-08-12T11:35:13;18.28;75.46
22069;DHT22;13887;57.196;-2.100;2023-08-12T11:37:43;18.29;75.42
22069;DHT22;13887;57.196;-2.100;2023-08-12T11:40:12;18.27;75.50
22069;DHT22;13887;57.196;-2.100;2023-08-12T11:42:45;18.27;75.55
22069;DHT22;13887;57.196;-2.100;2023-08-12T11:45:15;18.26;75.59
22069;DHT22;13887;57.196;-2.100;2023-08-12T11:47:43;18.25;75.70
22069;DHT22;13887;57.196;-2.100;2023-08-12T11:50:11;18.23;75.94
22069;DHT22;13887;57.196;-2.100;2023-08-12T11:52:40;18.24;75.86
22069;DHT22;13887;57.196;-2.100;2023-08-12T11:55:07;18.25;75.86
22069;DHT22;13887;57.196;-2.100;2023-08-12T11:57:35;18.25;75.91
22069;DHT22;13887;57.196;-2.100;2023-08-12T12:00:08;18.25;76.01
22069;DHT22;13887;57.196;-2.100;2023-08-12T12:02:53;18.29;76.20
22069;DHT22;13887;57.196;-2.100;2023-08-12T12:05:23;18.29;75.99
22069;DHT22;13887;57.196;-2.100;2023-08-12T12:07:51;18.28;76.00
22069;DHT22;13887;57.196;-2.100;2023-08-12T12:10:30;18.29;76.08
22069;DHT22;13887;57.196;-2.100;2023-08-12T12:13:02;18.30;76.21
22069;DHT22;13887;57.196;-2.100;2023-08-12T12:15:31;18.34;76.08
22069;DHT22;13887;57.196;-2.100;2023-08-12T12:17:59;18.33;76.98
22069;DHT22;13887;57.196;-2.100;2023-08-12T12:20:26;18.22;77.74
22069;DHT22;13887;57.196;-2.100;2023-08-12T12:22:56;18.35;77.05
22069;DHT22;13887;57.196;-2.100;2023-08-12T12:25:26;18.44;76.87
22069;DHT22;13887;57.196;-2.100;2023-08-12T12:27:53;18.55;76.41
22069;DHT22;13887;57.196;-2.100;2023-08-12T12:30:21;18.57;76.47
22069;DHT22;13887;57.196;-2.100;2023-08-12T12:32:49;18.63;76.19
22069;DHT22;13887;57.196;-2.100;2023-08-12T12:35:18;18.62;76.06
22069;DHT22;13887;57.196;-2.100;2023-08-12T12:37:45;18.65;76.30
22069;DHT22;13887;57.196;-2.100;2023-08-12T12:40:12;18.67;76.34
22069;DHT22;13887;57.196;-2.100;2023-08-12T12:42:39;18.69;76.32
22069;DHT22;13887;57.196;-2.100;2023-08-12T12:45:07;18.66;76.33
22069;DHT22;13887;57.196;-2.100;2023-08-12T12:47:34;18.70;76.21
22069;DHT22;13887;57.196;-2.100;2023-08-12T12:50:01;18.72;76.48
22069;DHT22;13887;57.196;-2.100;2023-08-12T12:52:29;18.72;76.20
22069;DHT22;13887;57.196;-2.100;2023-08-12T12:54:56;18.71;76.24
22069;DHT22;13887;57.196;-2.100;2023-08-12T12:57:24;18.70;76.00
22069;DHT22;13887;57.196;-2.100;2023-08-12T12:59:51;18.71;76.09
22069;DHT22;13887;57.196;-2.100;2023-08-12T13:02:19;18.74;75.99
22069;DHT22;13887;57.196;-2.100;2023-08-12T13:04:46;18.72;76.20
22069;DHT22;13887;57.196;-2.100;2023-08-12T13:07:13;18.79;76.13
22069;DHT22;13887;57.196;-2.100;2023-08-12T13:09:40;18.79;76.08
22069;DHT22;13887;57.196;-2.100;2023-08-12T13:12:08;18.80;76.04
22069;DHT22;13887;57.196;-2.100;2023-08-12T13:14:35;18.78;75.91
22069;DHT22;13887;57.196;-2.100;2023-08-12T13:17:02;18.80;76.03
22069;DHT22;13887;57.196;-2.100;2023-08-12T13:19:30;18.83;75.85
22069;DHT22;13887;57.196;-2.100;2023-08-12T13:21:57;18.86;75.85
22069;DHT22;13887;57.196;-2.100;2023-08-12T13:24:24;18.92;75.77
22069;DHT22;13887;57.196;-2.100;2023-08-12T13:26:52;18.93;75.93
22069;DHT22;13887;57.196;-2.100;2023-08-12T13:29:21;18.96;75.99
22069;DHT22;13887;57.196;-2.100;2023-08-12T13:31:48;19.02;75.94
22069;DHT22;13887;57.196;-2.100;2023-08-12T13:34:16;19.06;76.25
22069;DHT22;13887;57.196;-2.100;2023-08-12T13:36:43;19.10;76.09
22069;DHT22;13887;57.196;-2.100;2023-08-12T13:39:10;19.12;76.05
22069;DHT22;13887;57.196;-2.100;2023-08-12T13:41:37;19.09;76.11
22069;DHT22;13887;57.196;-2.100;2023-08-12T13:44:04;19.08;76.19
22069;DHT22;13887;57.196;-2.100;2023-08-12T13:46:32;19.08;76.35
22069;DHT22;13887;57.196;-2.100;2023-08-12T13:48:59;19.12;76.52
22069;DHT22;13887;57.196;-2.100;2023-08-12T13:51:26;19.13;76.31
22069;DHT22;13887;57.196;-2.100;2023-08-12T13:53:54;19.07;75.85
22069;DHT22;13887;57.196;-2.100;2023-08-12T13:56:20;19.06;75.91
22069;DHT22;13887;57.196;-2.100;2023-08-12T13:58:48;19.06;75.90
22069;DHT22;13887;57.196;-2.100;2023-08-12T14:01:15;19.33;75.00
22069;DHT22;13887;57.196;-2.100;2023-08-12T14:03:42;19.11;75.50
22069;DHT22;13887;57.196;-2.100;2023-08-12T14:06:09;19.01;76.21
22069;DHT22;13887;57.196;-2.100;2023-08-12T14:08:37;19.07;76.52
22069;DHT22;13887;57.196;-2.100;2023-08-12T14:11:04;19.12;76.12
22069;DHT22;13887;57.196;-2.100;2023-08-12T14:13:31;19.12;76.21
22069;DHT22;13887;57.196;-2.100;2023-08-12T14:15:58;19.26;76.18
22069;DHT22;13887;57.196;-2.100;2023-08-12T14:18:25;19.22;76.59
22069;DHT22;13887;57.196;-2.100;2023-08-12T14:20:52;19.14;76.86
22069;DHT22;13887;57.196;-2.100;2023-08-12T14:23:20;19.05;77.32
22069;DHT22;13887;57.196;-2.100;2023-08-12T14:25:47;19.00;77.27
22069;DHT22;13887;57.196;-2.100;2023-08-12T14:28:14;18.97;77.40
22069;DHT22;13887;57.196;-2.100;2023-08-12T14:30:41;18.97;77.45
22069;DHT22;13887;57.196;-2.100;2023-08-12T14:33:08;18.98;77.49
22069;DHT22;13887;57.196;-2.100;2023-08-12T14:35:36;18.97;77.60
22069;DHT22;13887;57.196;-2.100;2023-08-12T14:38:03;18.96;77.58
22069;DHT22;13887;57.196;-2.100;2023-08-12T14:40:30;18.95;77.56
22069;DHT22;13887;57.196;-2.100;2023-08-12T14:42:57;18.94;77.58
22069;DHT22;13887;57.196;-2.100;2023-08-12T14:45:25;18.93;77.51
22069;DHT22;13887;57.196;-2.100;2023-08-12T14:47:52;18.92;77.53
22069;DHT22;13887;57.196;-2.100;2023-08-12T14:50:19;18.91;77.63
22069;DHT22;13887;57.196;-2.100;2023-08-12T14:52:46;18.89;77.76
22069;DHT22;13887;57.196;-2.100;2023-08-12T14:55:14;18.88;77.75
22069;DHT22;13887;57.196;-2.100;2023-08-12T14:57:41;18.87;77.82
22069;DHT22;13887;57.196;-2.100;2023-08-12T15:00:09;18.87;78.01
22069;DHT22;13887;57.196;-2.100;2023-08-12T15:02:37;18.88;77.92
22069;DHT22;13887;57.196;-2.100;2023-08-12T15:05:05;18.85;78.24
22069;DHT22;13887;57.196;-2.100;2023-08-12T15:07:33;18.85;77.98
22069;DHT22;13887;57.196;-2.100;2023-08-12T15:10:00;18.89;77.76
22069;DHT22;13887;57.196;-2.100;2023-08-12T15:12:27;18.92;77.75
22069;DHT22;13887;57.196;-2.100;2023-08-12T15:14:55;18.94;77.63
22069;DHT22;13887;57.196;-2.100;2023-08-12T15:17:22;18.96;77.46
22069;DHT22;13887;57.196;-2.100;2023-08-12T15:19:49;18.98;77.49
22069;DHT22;13887;57.196;-2.100;2023-08-12T15:22:16;19.02;77.59
22069;DHT22;13887;57.196;-2.100;2023-08-12T15:24:44;19.01;77.66
22069;DHT22;13887;57.196;-2.100;2023-08-12T15:27:11;19.03;77.59